Time;durP1;ratioP1;P1;durP2;ratioP2;P2;SDS_P1;SDS_P2;PMS_P1;PMS_P2;Temp;Humidity;BMP_temperature;BMP_pressure;BME280_temperature;BME280_humidity;BME280_pressure;Samples;Min_cycle;Max_cycle;Signal;HPM_P1;HPM_P2
2021/09/16 00:01:51;;;;;;;14.07;8.15;;;11.10;73.90;;;;;;4938263;29;20019;-88
2021/09/16 00:04:17;;;;;;;12.85;8.48;;;11.10;74.00;;;;;;4921415;29;20035;-89
2021/09/16 00:06:43;;;;;;;12.55;7.35;;;11.00;74.10;;;;;;4921230;29;20395;-89
2021/09/16 00:09:08;;;;;;;13.98;8.68;;;11.00;74.20;;;;;;4921405;29;20078;-88
2021/09/16 00:11:34;;;;;;;11.77;7.32;;;11.00;74.30;;;;;;4921320;29;20023;-88
2021/09/16 00:14:00;;;;;;;13.93;8.00;;;10.90;74.70;;;;;;4921037;29;20025;-89
2021/09/16 00:16:26;;;;;;;15.75;8.18;;;10.90;74.60;;;;;;4920919;29;20032;-87
2021/09/16 00:18:51;;;;;;;16.85;9.90;;;10.90;74.60;;;;;;4939127;29;20032;-88
2021/09/16 00:21:17;;;;;;;16.45;8.13;;;10.80;75.00;;;;;;4921550;29;20047;-88
2021/09/16 00:23:44;;;;;;;16.48;7.10;;;10.80;75.20;;;;;;4920957;29;20384;-88
2021/09/16 00:26:09;;;;;;;15.07;7.65;;;10.80;75.30;;;;;;4920907;29;20031;-88
2021/09/16 00:28:35;;;;;;;20.13;8.98;;;10.70;75.40;;;;;;4937675;29;20042;-89
2021/09/16 00:31:01;;;;;;;19.92;8.27;;;10.70;75.70;;;;;;4937966;29;20498;-89
2021/09/16 00:33:26;;;;;;;16.92;9.45;;;10.70;75.80;;;;;;4921090;29;20023;-89
2021/09/16 00:35:52;;;;;;;16.98;8.90;;;10.60;75.90;;;;;;4920753;29;20031;-88
2021/09/16 00:38:18;;;;;;;15.43;8.73;;;10.60;76.00;;;;;;4921059;29;20054;-89
2021/09/16 00:40:44;;;;;;;22.02;9.23;;;10.60;76.10;;;;;;4920449;29;20031;-88
2021/09/16 00:43:09;;;;;;;15.38;8.18;;;10.60;76.30;;;;;;4920750;29;20035;-89
2021/09/16 00:45:35;;;;;;;12.30;8.02;;;10.60;76.50;;;;;;4921223;29;20031;-88
2021/09/16 00:48:01;;;;;;;17.67;10.50;;;10.50;76.50;;;;;;4920593;29;20118;-87
2021/09/16 00:50:27;;;;;;;17.02;9.85;;;10.50;76.50;;;;;;4920866;29;20389;-88
2021/09/16 00:52:53;;;;;;;18.45;10.88;;;10.50;76.60;;;;;;4920412;29;20034;-88
2021/09/16 00:55:22;;;;;;;22.75;11.27;;;10.50;76.70;;;;;;4937611;29;20491;-88
2021/09/16 00:57:52;;;;;;;17.02;10.32;;;10.50;76.90;;;;;;4920356;29;20036;-89
2021/09/16 01:00:18;;;;;;;20.17;10.43;;;10.40;77.00;;;;;;4920860;29;20051;-88
2021/09/16 01:02:44;;;;;;;16.27;9.93;;;10.40;77.20;;;;;;4920376;29;20028;-89
2021/09/16 01:05:11;;;;;;;18.08;7.93;;;10.40;77.40;;;;;;4920201;29;20163;-87
2021/09/16 01:07:38;;;;;;;19.65;9.20;;;10.40;78.00;;;;;;4920298;29;20039;-88
2021/09/16 01:10:07;;;;;;;15.75;9.07;;;10.30;77.50;;;;;;4920143;29;20468;-89
2021/09/16 01:12:33;;;;;;;17.60;9.40;;;10.30;77.60;;;;;;4919834;29;20032;-88
2021/09/16 01:14:59;;;;;;;16.92;9.18;;;10.30;77.80;;;;;;4920192;29;20464;-88
2021/09/16 01:17:25;;;;;;;19.73;9.52;;;10.30;78.00;;;;;;4920475;29;20118;-88
2021/09/16 01:19:50;;;;;;;15.07;9.80;;;10.30;78.10;;;;;;4938028;29;20075;-88
2021/09/16 01:22:22;;;;;;;17.38;9.25;;;10.20;78.00;;;;;;4920429;29;20028;-88
2021/09/16 01:24:48;;;;;;;20.50;11.15;;;10.20;78.30;;;;;;4919837;29;20472;-89
2021/09/16 01:27:13;;;;;;;19.40;9.95;;;10.20;78.40;;;;;;4943609;29;20055;-89
2021/09/16 01:29:39;;;;;;;17.35;9.90;;;10.20;78.60;;;;;;4930012;29;20070;-88
2021/09/16 01:32:06;;;;;;;16.13;8.38;;;10.20;78.90;;;;;;4930640;29;20038;-88
2021/09/16 01:34:33;;;;;;;17.48;9.02;;;10.10;78.70;;;;;;4922608;29;20103;-88
2021/09/16 01:36:59;;;;;;;15.45;8.85;;;10.10;79.00;;;;;;4919832;29;20023;-88
2021/09/16 01:39:25;;;;;;;17.30;10.32;;;10.10;79.10;;;;;;4936774;29;20043;-88
2021/09/16 01:41:51;;;;;;;21.20;9.98;;;10.10;79.10;;;;;;4919930;29;20031;-88
2021/09/16 01:44:18;;;;;;;16.73;9.55;;;10.10;79.30;;;;;;4919780;29;20028;-88
2021/09/16 01:46:44;;;;;;;14.35;7.97;;;10.00;79.50;;;;;;4919798;29;20387;-88
2021/09/16 01:49:10;;;;;;;16.92;8.30;;;10.00;79.50;;;;;;4919790;29;20024;-88
2021/09/16 01:51:36;;;;;;;22.30;10.90;;;10.00;79.60;;;;;;4919663;29;20023;-88
2021/09/16 01:54:04;;;;;;;25.10;12.18;;;10.00;79.80;;;;;;4919383;29;20118;-89
2021/09/16 01:56:31;;;;;;;21.80;11.02;;;9.90;79.80;;;;;;4919590;29;20031;-88
2021/09/16 01:58:56;;;;;;;19.55;10.02;;;9.90;80.00;;;;;;4919512;29;20070;-88
2021/09/16 02:01:22;;;;;;;18.55;9.23;;;9.90;80.20;;;;;;4919570;29;20068;-88
2021/09/16 02:03:49;;;;;;;13.45;7.75;;;9.90;80.20;;;;;;4919371;29;20467;-88
2021/09/16 02:06:15;;;;;;;16.77;10.07;;;9.90;80.20;;;;;;4919542;29;20490;-88
2021/09/16 02:08:41;;;;;;;16.65;8.57;;;9.90;80.80;;;;;;4936506;29;20062;-88
2021/09/16 02:11:06;;;;;;;15.40;8.73;;;9.90;80.80;;;;;;4919791;29;20038;-88
2021/09/16 02:13:32;;;;;;;14.82;8.70;;;9.90;80.90;;;;;;4919413;29;20024;-90
2021/09/16 02:15:58;;;;;;;14.80;8.40;;;9.90;80.90;;;;;;4921746;29;20027;-88
2021/09/16 02:18:24;;;;;;;20.75;11.02;;;9.90;80.90;;;;;;4921332;29;20436;-88
2021/09/16 02:20:49;;;;;;;22.75;9.15;;;9.90;80.90;;;;;;4920503;29;20077;-89
2021/09/16 02:23:15;;;;;;;19.35;10.50;;;9.90;81.10;;;;;;4920641;29;20056;-89
2021/09/16 02:25:41;;;;;;;18.70;9.57;;;9.90;81.10;;;;;;4921834;29;20039;-88
2021/09/16 02:28:07;;;;;;;17.10;8.80;;;9.90;81.20;;;;;;4938968;29;20188;-88
2021/09/16 02:30:33;;;;;;;13.35;8.38;;;9.80;81.30;;;;;;4921968;29;20078;-89
2021/09/16 02:33:00;;;;;;;19.15;9.05;;;9.80;81.40;;;;;;4938853;29;20024;-88
2021/09/16 02:35:26;;;;;;;12.18;7.18;;;9.80;81.70;;;;;;4921798;29;20159;-89
2021/09/16 02:37:52;;;;;;;23.05;8.35;;;9.80;81.60;;;;;;4921508;29;20067;-88
2021/09/16 02:40:18;;;;;;;16.58;8.93;;;9.80;81.60;;;;;;4921680;29;20047;-88
2021/09/16 02:42:43;;;;;;;17.15;9.02;;;9.80;81.80;;;;;;4921563;29;20495;-88
2021/09/16 02:45:09;;;;;;;17.08;7.85;;;9.80;82.00;;;;;;4921767;29;20124;-88
2021/09/16 02:47:35;;;;;;;13.23;9.13;;;9.80;82.10;;;;;;4921406;29;20032;-88
2021/09/16 02:50:01;;;;;;;15.15;7.95;;;9.70;82.40;;;;;;4921592;29;20039;-89
2021/09/16 02:52:26;;;;;;;15.02;7.57;;;9.70;82.50;;;;;;4921502;29;20024;-88
2021/09/16 02:54:52;;;;;;;12.50;7.35;;;9.70;82.60;;;;;;4938679;29;20027;-88
2021/09/16 02:57:18;;;;;;;11.27;6.82;;;9.70;82.70;;;;;;4939035;29;20032;-88
2021/09/16 02:59:43;;;;;;;13.75;6.32;;;9.70;82.60;;;;;;4921721;29;20131;-88
2021/09/16 03:02:09;;;;;;;13.63;7.35;;;9.70;82.80;;;;;;4921558;29;20426;-88
2021/09/16 03:04:35;;;;;;;16.75;8.48;;;9.70;82.80;;;;;;4938369;29;20094;-88
2021/09/16 03:07:00;;;;;;;21.45;9.82;;;9.70;82.70;;;;;;4920960;29;20028;-89
2021/09/16 03:09:26;;;;;;;18.90;8.90;;;9.70;82.70;;;;;;4921197;29;20031;-88
2021/09/16 03:11:52;;;;;;;19.85;8.73;;;9.70;83.00;;;;;;4921203;29;20038;-88
2021/09/16 03:14:18;;;;;;;14.02;8.20;;;9.70;83.10;;;;;;4921062;29;20035;-88
2021/09/16 03:16:43;;;;;;;22.23;8.68;;;9.70;83.20;;;;;;4937963;29;20107;-89
2021/09/16 03:19:09;;;;;;;21.42;9.07;;;9.80;83.20;;;;;;4920916;29;20032;-88
2021/09/16 03:21:35;;;;;;;19.52;9.93;;;9.90;83.30;;;;;;4921054;29;20039;-89
2021/09/16 03:24:00;;;;;;;19.20;9.80;;;9.90;83.20;;;;;;4884259;29;1175734;-88
2021/09/16 03:26:26;;;;;;;21.58;8.80;;;10.00;83.30;;;;;;4919944;29;20505;-88
2021/09/16 03:28:52;;;;;;;22.25;9.93;;;10.10;83.20;;;;;;4938981;29;20066;-88
2021/09/16 03:31:17;;;;;;;22.30;10.02;;;10.20;83.10;;;;;;4922078;29;20430;-89
2021/09/16 03:33:43;;;;;;;13.40;7.45;;;10.20;82.90;;;;;;4921912;29;20562;-88
2021/09/16 03:36:09;;;;;;;13.90;7.13;;;10.30;82.80;;;;;;4921369;29;20028;-88
2021/09/16 03:38:35;;;;;;;19.48;9.25;;;10.40;82.80;;;;;;4939039;29;20031;-88
2021/09/16 03:41:01;;;;;;;16.10;8.75;;;10.50;82.60;;;;;;4938876;29;20114;-88
2021/09/16 03:43:27;;;;;;;12.73;7.10;;;10.60;82.50;;;;;;4921876;29;20186;-88
2021/09/16 03:45:53;;;;;;;11.80;6.72;;;10.60;82.30;;;;;;4921835;29;20067;-88
2021/09/16 03:48:18;;;;;;;16.50;8.07;;;10.70;82.10;;;;;;4921653;29;20059;-89
2021/09/16 03:50:44;;;;;;;14.30;7.78;;;10.80;81.80;;;;;;4921638;29;20035;-89
2021/09/16 03:53:10;;;;;;;14.05;6.50;;;10.90;81.70;;;;;;4921664;29;20383;-89
2021/09/16 03:55:36;;;;;;;13.85;6.38;;;11.00;81.60;;;;;;4938663;29;20028;-88
2021/09/16 03:58:02;;;;;;;17.88;7.93;;;11.00;81.40;;;;;;4921979;29;20118;-88
2021/09/16 04:00:27;;;;;;;12.88;6.53;;;11.10;81.30;;;;;;4921534;29;20039;-88
2021/09/16 04:02:53;;;;;;;15.32;7.88;;;11.20;81.20;;;;;;4921419;29;20068;-88
2021/09/16 04:05:19;;;;;;;10.30;6.80;;;11.30;81.00;;;;;;4938257;29;20023;-88
2021/09/16 04:07:44;;;;;;;14.13;7.10;;;11.40;80.90;;;;;;4921298;29;20035;-89
2021/09/16 04:10:10;;;;;;;18.85;9.77;;;11.40;80.70;;;;;;4921344;29;20038;-88
2021/09/16 04:12:36;;;;;;;27.25;11.57;;;11.50;80.60;;;;;;4921288;29;20051;-88
2021/09/16 04:15:04;;;;;;;17.10;10.38;;;11.60;80.50;;;;;;4920984;29;20031;-88
2021/09/16 04:17:30;;;;;;;19.08;11.75;;;11.70;80.30;;;;;;4920997;29;20099;-89
2021/09/16 04:19:55;;;;;;;22.27;13.75;;;11.80;80.20;;;;;;4920932;29;20483;-89
2021/09/16 04:22:21;;;;;;;15.30;9.85;;;11.80;80.00;;;;;;4921139;29;20492;-89
2021/09/16 04:24:47;;;;;;;14.75;9.50;;;11.90;79.70;;;;;;4921364;29;20468;-87
2021/09/16 04:27:13;;;;;;;20.23;11.90;;;12.00;79.60;;;;;;4938823;29;20107;-88
2021/09/16 04:29:41;;;;;;;20.40;10.35;;;12.10;79.60;;;;;;4938334;29;20064;-88
2021/09/16 04:32:08;;;;;;;20.63;10.75;;;12.10;79.40;;;;;;4937948;29;20328;-88
2021/09/16 04:34:33;;;;;;;14.98;8.80;;;12.20;79.50;;;;;;4921460;29;20099;-88
2021/09/16 04:36:59;;;;;;;13.30;8.35;;;12.20;79.40;;;;;;4921234;29;20479;-88
2021/09/16 04:39:25;;;;;;;12.77;8.43;;;12.30;79.40;;;;;;4921363;29;20028;-88
2021/09/16 04:41:50;;;;;;;17.45;8.95;;;12.40;79.30;;;;;;4922041;29;20123;-89
2021/09/16 04:44:16;;;;;;;28.05;12.63;;;12.40;79.10;;;;;;4921546;29;20027;-88
2021/09/16 04:46:42;;;;;;;19.85;11.18;;;12.50;79.10;;;;;;4920216;29;20038;-89
2021/09/16 04:49:08;;;;;;;19.48;11.77;;;12.50;79.10;;;;;;4927510;29;20038;-88
2021/09/16 04:51:33;;;;;;;19.63;12.50;;;12.60;79.40;;;;;;4927446;29;20074;-89
2021/09/16 04:53:59;;;;;;;20.00;9.85;;;12.60;79.60;;;;;;4925926;29;20094;-88
2021/09/16 04:56:25;;;;;;;14.30;8.77;;;12.60;79.70;;;;;;4921100;29;20027;-89
2021/09/16 04:58:50;;;;;;;15.55;8.00;;;12.60;80.10;;;;;;4920524;29;20364;-89
2021/09/16 05:01:16;;;;;;;21.45;10.25;;;12.70;80.40;;;;;;4919540;29;20039;-89
2021/09/16 05:03:43;;;;;;;16.67;10.05;;;12.80;80.80;;;;;;4920712;29;20027;-88
2021/09/16 05:06:09;;;;;;;12.45;8.73;;;12.80;80.60;;;;;;4920990;29;20063;-89
2021/09/16 05:08:35;;;;;;;15.63;8.60;;;12.90;80.40;;;;;;4920771;29;20032;-88
2021/09/16 05:11:01;;;;;;;16.27;8.63;;;13.00;80.40;;;;;;4920932;29;20034;-89
2021/09/16 05:13:26;;;;;;;13.52;7.20;;;13.00;80.10;;;;;;4936996;29;20027;-88
2021/09/16 05:15:52;;;;;;;11.88;7.10;;;13.10;80.00;;;;;;4920151;29;20534;-89
2021/09/16 05:18:18;;;;;;;11.52;7.03;;;13.20;79.80;;;;;;4919788;29;20043;-88
2021/09/16 05:20:44;;;;;;;9.45;6.05;;;13.20;79.70;;;;;;4936739;29;20115;-88
2021/09/16 05:23:09;;;;;;;10.40;6.53;;;13.30;79.70;;;;;;4920035;29;20499;-88
2021/09/16 05:25:35;;;;;;;10.55;6.72;;;13.40;79.70;;;;;;4919762;29;20066;-89
2021/09/16 05:28:01;;;;;;;14.45;8.30;;;13.50;79.80;;;;;;4915377;29;20024;-89
2021/09/16 05:30:27;;;;;;;11.23;6.50;;;13.60;79.90;;;;;;4901487;29;20520;-90
2021/09/16 05:32:53;;;;;;;14.65;8.43;;;13.70;79.80;;;;;;4901664;29;20032;-89
2021/09/16 05:35:18;;;;;;;11.43;7.10;;;13.80;79.80;;;;;;4911832;29;20123;-90
2021/09/16 05:37:44;;;;;;;11.30;7.25;;;14.00;79.70;;;;;;4919410;29;20031;-88
2021/09/16 05:40:11;;;;;;;10.60;7.32;;;14.10;79.70;;;;;;4920161;29;20126;-89
2021/09/16 05:42:37;;;;;;;12.50;6.05;;;14.30;79.50;;;;;;4920084;29;20036;-88
2021/09/16 05:45:05;;;;;;;18.58;6.97;;;14.40;79.30;;;;;;4952394;29;20364;-88
2021/09/16 05:47:31;;;;;;;11.38;6.45;;;14.50;79.10;;;;;;4951961;28;20090;-89
2021/09/16 05:49:57;;;;;;;10.93;6.88;;;14.70;79.00;;;;;;4930439;29;20075;-89
2021/09/16 05:52:22;;;;;;;14.75;7.68;;;14.90;78.70;;;;;;4908619;29;20025;-89
2021/09/16 05:54:48;;;;;;;8.63;6.25;;;15.00;78.60;;;;;;4905802;29;20461;-89
2021/09/16 05:57:14;;;;;;;9.73;6.40;;;15.20;78.60;;;;;;4906815;29;20432;-89
2021/09/16 05:59:40;;;;;;;10.57;6.50;;;15.30;78.40;;;;;;4935867;29;20043;-89
2021/09/16 06:02:06;;;;;;;9.23;6.25;;;15.50;78.20;;;;;;4945359;29;20020;-89
2021/09/16 06:04:32;;;;;;;9.27;6.70;;;15.60;78.00;;;;;;4925141;29;20036;-88
2021/09/16 06:07:03;;;;;;;10.18;7.20;;;15.80;77.60;;;;;;4944369;29;20106;-89
2021/09/16 06:09:30;;;;;;;9.38;5.68;;;15.90;77.40;;;;;;4911797;29;20067;-88
2021/09/16 06:11:55;;;;;;;9.23;6.50;;;16.10;77.00;;;;;;4943070;29;20360;-89
2021/09/16 06:14:21;;;;;;;9.13;6.65;;;16.20;76.60;;;;;;4940370;29;20331;-90
2021/09/16 06:16:47;;;;;;;9.82;6.40;;;16.30;76.40;;;;;;4943121;29;20082;-89
2021/09/16 06:19:12;;;;;;;9.90;6.70;;;16.40;76.20;;;;;;4947150;29;20059;-89
2021/09/16 06:21:39;;;;;;;9.40;6.50;;;16.50;75.80;;;;;;4908581;29;20056;-90
2021/09/16 06:24:05;;;;;;;10.23;6.47;;;16.60;75.40;;;;;;4944149;29;20056;-91
2021/09/16 06:26:31;;;;;;;9.82;6.35;;;16.80;75.00;;;;;;4951137;29;20035;-91
2021/09/16 06:28:57;;;;;;;8.15;5.70;;;16.90;74.50;;;;;;4947523;29;20047;-90
2021/09/16 06:31:23;;;;;;;13.45;7.43;;;17.10;73.90;;;;;;4926029;29;20099;-89
2021/09/16 06:33:48;;;;;;;8.32;6.43;;;17.20;73.30;;;;;;4912275;29;20034;-90
2021/09/16 06:36:14;;;;;;;8.25;6.38;;;17.30;73.00;;;;;;4921764;29;20095;-89
2021/09/16 06:38:40;;;;;;;10.00;7.10;;;17.40;72.70;;;;;;4907081;29;20079;-90
2021/09/16 06:41:05;;;;;;;9.68;7.10;;;17.50;72.40;;;;;;4919435;29;20035;-89
2021/09/16 06:43:31;;;;;;;12.52;7.53;;;17.60;71.80;;;;;;4949988;29;20078;-90
2021/09/16 06:45:57;;;;;;;10.18;8.23;;;17.70;71.20;;;;;;4941373;29;20051;-89
2021/09/16 06:48:23;;;;;;;11.77;8.13;;;17.90;70.80;;;;;;4938074;28;20034;-90
2021/09/16 06:50:48;;;;;;;12.65;7.93;;;18.00;70.40;;;;;;4950631;29;20031;-89
2021/09/16 06:53:14;;;;;;;10.45;7.22;;;18.20;69.50;;;;;;4947689;29;20019;-89
2021/09/16 06:55:40;;;;;;;8.95;6.88;;;18.30;68.50;;;;;;4949615;29;20122;-89
2021/09/16 06:58:05;;;;;;;8.77;5.97;;;18.40;67.60;;;;;;4947760;29;20024;-89
2021/09/16 07:00:31;;;;;;;8.75;6.97;;;18.50;66.40;;;;;;4955337;29;20032;-89
2021/09/16 07:02:57;;;;;;;7.78;6.18;;;18.70;65.80;;;;;;4919090;29;20029;-90
2021/09/16 07:05:23;;;;;;;9.35;6.60;;;18.80;65.20;;;;;;4909034;29;20032;-90
2021/09/16 07:07:49;;;;;;;10.40;7.07;;;18.90;64.90;;;;;;4899150;29;20040;-89
2021/09/16 07:10:14;;;;;;;8.93;6.82;;;19.00;64.50;;;;;;4901043;29;20036;-89
2021/09/16 07:12:40;;;;;;;9.48;5.70;;;19.10;63.50;;;;;;4920508;29;20024;-90
2021/09/16 07:15:07;;;;;;;7.68;5.00;;;19.20;63.00;;;;;;4903494;29;20128;-90
2021/09/16 07:17:32;;;;;;;5.80;4.80;;;19.30;62.00;;;;;;4903171;29;20123;-90
2021/09/16 07:19:58;;;;;;;5.47;4.35;;;19.40;60.50;;;;;;4901780;29;20163;-91
2021/09/16 07:22:24;;;;;;;5.65;4.38;;;19.50;59.90;;;;;;4901185;29;20029;-91
2021/09/16 07:24:49;;;;;;;8.60;4.85;;;19.50;59.10;;;;;;4901235;29;20039;-90
2021/09/16 07:27:15;;;;;;;7.97;5.85;;;19.50;59.50;;;;;;4900971;29;20478;-90
2021/09/16 07:29:41;;;;;;;7.32;6.07;;;19.60;59.00;;;;;;4901233;29;20032;-90
2021/09/16 07:32:07;;;;;;;8.77;6.70;;;19.70;60.40;;;;;;4901940;29;20087;-90
2021/09/16 07:34:33;;;;;;;12.93;8.02;;;19.70;61.20;;;;;;4902420;29;20074;-91
2021/09/16 07:36:58;;;;;;;12.38;8.60;;;19.70;62.50;;;;;;4903023;29;20032;-89
2021/09/16 07:39:24;;;;;;;9.07;7.43;;;19.60;63.80;;;;;;4919639;29;20477;-89
2021/09/16 07:41:51;;;;;;;10.82;7.93;;;19.50;63.90;;;;;;4902606;29;20392;-90
2021/09/16 07:44:18;;;;;;;12.93;7.63;;;19.50;63.90;;;;;;4903408;29;20473;-89
2021/09/16 07:46:44;;;;;;;9.35;6.70;;;19.60;63.50;;;;;;4905738;29;20031;-90
2021/09/16 07:49:10;;;;;;;8.98;6.57;;;19.70;63.40;;;;;;4903053;29;20466;-89
2021/09/16 07:51:36;;;;;;;8.15;6.60;;;19.80;63.10;;;;;;4902579;29;20119;-89
2021/09/16 07:54:03;;;;;;;5.85;5.00;;;19.90;62.20;;;;;;4902845;29;20028;-90
2021/09/16 07:56:29;;;;;;;7.38;4.88;;;20.00;59.90;;;;;;4910122;29;20039;-89
2021/09/16 07:58:55;;;;;;;4.90;4.18;;;20.10;59.00;;;;;;4911925;29;20051;-89
2021/09/16 08:01:21;;;;;;;7.25;5.10;;;20.20;58.80;;;;;;4910368;29;20041;-90
2021/09/16 08:03:47;;;;;;;5.85;4.78;;;20.30;58.70;;;;;;4902998;29;20120;-89
2021/09/16 08:06:13;;;;;;;7.88;5.18;;;20.40;57.50;;;;;;4917665;29;20039;-90
2021/09/16 08:08:39;;;;;;;7.88;5.50;;;20.40;57.30;;;;;;4901601;29;20024;-90
2021/09/16 08:11:06;;;;;;;6.47;4.95;;;20.40;57.20;;;;;;4900679;29;20131;-90
2021/09/16 08:13:31;;;;;;;6.00;4.43;;;20.40;57.50;;;;;;4900468;29;20031;-92
2021/09/16 08:15:57;;;;;;;7.07;5.35;;;20.40;57.60;;;;;;4899828;29;20115;-91
2021/09/16 08:18:23;;;;;;;6.28;5.22;;;20.50;57.10;;;;;;4900175;29;20029;-90
2021/09/16 08:20:50;;;;;;;9.98;4.72;;;20.50;57.20;;;;;;4899723;29;20437;-91
2021/09/16 08:23:17;;;;;;;8.15;4.95;;;20.60;56.70;;;;;;4900514;29;20071;-89
2021/09/16 08:25:43;;;;;;;6.22;4.70;;;20.60;55.30;;;;;;4917791;29;20523;-89
2021/09/16 08:28:09;;;;;;;5.30;4.13;;;20.60;55.80;;;;;;4901556;29;20047;-89
2021/09/16 08:30:35;;;;;;;5.20;4.35;;;20.60;54.80;;;;;;4901965;29;20482;-89
2021/09/16 08:33:01;;;;;;;5.82;3.88;;;20.60;53.60;;;;;;4901247;29;20428;-89
2021/09/16 08:35:26;;;;;;;7.05;4.32;;;20.60;53.00;;;;;;4901469;29;20073;-88
2021/09/16 08:37:53;;;;;;;5.28;3.63;;;20.60;53.90;;;;;;4918555;29;20043;-89
2021/09/16 08:40:19;;;;;;;4.03;3.13;;;20.60;53.50;;;;;;4917093;29;20036;-89
2021/09/16 08:42:46;;;;;;;3.10;2.78;;;20.60;51.00;;;;;;4902180;29;20102;-89
2021/09/16 08:45:15;;;;;;;3.42;2.40;;;20.60;50.40;;;;;;4901604;29;20032;-89
2021/09/16 08:47:45;;;;;;;4.10;3.35;;;20.60;50.30;;;;;;4901199;29;20145;-89
2021/09/16 08:50:14;;;;;;;4.65;3.63;;;20.60;50.90;;;;;;4903695;29;20355;-90
2021/09/16 08:52:44;;;;;;;3.95;2.90;;;20.70;51.20;;;;;;4901169;29;20028;-90
2021/09/16 08:55:11;;;;;;;3.80;2.95;;;20.80;50.20;;;;;;4918386;29;20034;-89
2021/09/16 08:57:39;;;;;;;3.17;2.45;;;20.80;48.50;;;;;;4901179;29;20054;-92
2021/09/16 09:00:08;;;;;;;2.72;2.17;;;20.80;48.40;;;;;;4901300;29;20088;-89
2021/09/16 09:02:34;;;;;;;2.95;2.28;;;20.70;47.40;;;;;;4900818;29;20464;-90
2021/09/16 09:05:02;;;;;;;3.08;2.30;;;20.70;48.00;;;;;;4901611;29;20036;-88
2021/09/16 09:07:49;;;;;;;3.67;2.33;;;20.60;47.40;;;;;;4902413;29;20196;-91
2021/09/16 09:10:36;;;;;;;2.95;2.10;;;20.60;43.10;;;;;;4901104;29;20035;-90
2021/09/16 09:13:03;;;;;;;2.10;1.85;;;20.60;46.80;;;;;;4900656;29;20028;-90
2021/09/16 09:15:29;;;;;;;4.43;1.92;;;20.70;47.10;;;;;;4919428;29;20543;-90
2021/09/16 09:18:06;;;;;;;3.08;2.28;;;20.70;46.20;;;;;;4918973;29;20036;-88
2021/09/16 09:20:33;;;;;;;3.35;2.22;;;20.80;46.30;;;;;;4904569;29;20040;-88
2021/09/16 09:22:59;;;;;;;2.17;1.95;;;20.80;46.00;;;;;;4919439;29;20044;-88
2021/09/16 09:25:28;;;;;;;2.65;2.17;;;20.80;43.90;;;;;;4916498;29;20043;-88
2021/09/16 09:27:55;;;;;;;3.78;2.20;;;20.70;44.60;;;;;;4916011;29;20126;-89
2021/09/16 09:30:31;;;;;;;2.40;2.15;;;20.80;44.50;;;;;;4918279;29;20042;-89
2021/09/16 09:33:09;;;;;;;2.65;2.00;;;20.80;45.40;;;;;;4900919;29;20435;-89
2021/09/16 09:35:40;;;;;;;2.88;2.25;;;20.90;45.60;;;;;;4900833;29;20024;-91
2021/09/16 09:38:16;;;;;;;2.47;2.20;;;21.00;45.70;;;;;;4914144;29;20075;-90
2021/09/16 09:40:44;;;;;;;5.82;2.10;;;21.10;44.60;;;;;;4920225;29;20192;-91
2021/09/16 09:43:43;;;;;;;2.92;2.03;;;21.10;43.20;;;;;;4936777;29;20371;-91
2021/09/16 09:46:11;;;;;;;3.05;2.05;;;21.10;44.10;;;;;;4862291;29;20040;-90
2021/09/16 09:49:06;;;;;;;2.10;1.90;;;21.10;44.30;;;;;;4915269;29;20068;-90
2021/09/16 09:51:41;;;;;;;2.83;2.10;;;21.20;42.20;;;;;;4900689;29;20044;-91
2021/09/16 09:54:28;;;;;;;2.58;2.28;;;21.10;42.90;;;;;;4900913;29;20071;-90
2021/09/16 09:56:58;;;;;;;3.28;2.10;;;21.10;43.30;;;;;;4902645;29;20036;-90
2021/09/16 09:59:25;;;;;;;1.83;1.67;;;21.10;43.50;;;;;;4900861;29;20032;-89
2021/09/16 10:02:04;;;;;;;2.80;2.03;;;21.10;44.00;;;;;;4901774;29;20037;-92
2021/09/16 10:04:31;;;;;;;2.53;1.98;;;21.10;44.40;;;;;;4927150;29;20090;-91
2021/09/16 10:06:59;;;;;;;3.15;1.90;;;21.10;44.10;;;;;;4917041;29;20035;-90
2021/09/16 10:09:26;;;;;;;1.67;1.45;;;21.10;44.20;;;;;;4908188;29;20475;-90
2021/09/16 10:11:53;;;;;;;3.15;1.90;;;21.10;44.70;;;;;;4919429;29;20031;-89
2021/09/16 10:14:20;;;;;;;1.50;1.40;;;21.20;44.20;;;;;;4919623;29;20023;-90
2021/09/16 10:16:47;;;;;;;2.35;1.52;;;21.20;43.90;;;;;;4936492;29;20032;-90
2021/09/16 10:19:13;;;;;;;1.95;1.38;;;21.20;44.10;;;;;;4910329;29;20058;-90
2021/09/16 10:21:39;;;;;;;1.95;1.42;;;21.20;44.20;;;;;;4915324;29;20431;-90
2021/09/16 10:24:07;;;;;;;1.30;1.13;;;21.30;44.20;;;;;;4918806;29;20051;-90
2021/09/16 10:26:47;;;;;;;1.17;1.05;;;21.30;43.60;;;;;;4900715;29;20032;-91
2021/09/16 10:29:28;;;;;;;0.90;0.90;;;21.30;42.90;;;;;;4902798;29;20028;-91
2021/09/16 10:32:06;;;;;;;0.65;0.65;;;21.20;42.50;;;;;;4931039;29;20075;-91
2021/09/16 10:34:46;;;;;;;0.80;0.80;;;21.30;43.70;;;;;;4943963;29;20028;-90
2021/09/16 10:37:15;;;;;;;0.75;0.52;;;21.30;43.70;;;;;;4916052;29;20034;-91
2021/09/16 10:39:46;;;;;;;1.98;0.70;;;21.40;43.90;;;;;;4907788;29;20035;-91
2021/09/16 10:42:13;;;;;;;1.48;1.15;;;21.40;43.80;;;;;;4908086;29;20032;-91
2021/09/16 10:44:40;;;;;;;1.05;0.93;;;21.50;43.80;;;;;;4918084;29;20032;-92
2021/09/16 10:47:28;;;;;;;2.08;1.17;;;21.60;43.80;;;;;;4924070;29;20046;-93
2021/09/16 10:50:18;;;;;;;1.48;1.38;;;21.80;43.80;;;;;;4926105;29;20170;-92
2021/09/16 10:53:22;;;;;;;2.30;1.67;;;21.90;43.50;;;;;;4927374;29;20034;-94
2021/09/16 10:55:48;;;;;;;2.20;1.60;;;22.00;43.60;;;;;;4925127;29;20043;-92
2021/09/16 10:58:28;;;;;;;2.22;1.63;;;22.00;43.50;;;;;;4925268;29;20031;-91
2021/09/16 11:00:55;;;;;;;2.08;1.70;;;22.00;43.40;;;;;;4924464;29;20044;-92
2021/09/16 11:03:21;;;;;;;2.85;1.88;;;22.10;43.60;;;;;;4925553;29;20028;-92
2021/09/16 11:05:55;;;;;;;2.05;1.90;;;22.00;43.00;;;;;;4925037;29;20045;-91
2021/09/16 11:08:42;;;;;;;5.18;2.03;;;22.00;42.90;;;;;;4923010;29;20462;-92
2021/09/16 11:11:08;;;;;;;1.95;1.75;;;21.90;42.80;;;;;;4924114;29;20209;-90
2021/09/16 11:13:40;;;;;;;2.53;2.00;;;21.90;43.10;;;;;;4924168;29;20495;-91
2021/09/16 11:16:08;;;;;;;3.20;2.08;;;21.80;43.20;;;;;;4923043;29;20471;-92
2021/09/16 11:18:34;;;;;;;2.55;1.92;;;21.90;43.60;;;;;;4926065;29;20085;-92
2021/09/16 11:21:06;;;;;;;1.80;1.70;;;21.90;43.70;;;;;;4925104;29;20491;-92
2021/09/16 11:26:56;;;;;;;3.58;2.80;;;22.10;43.20;;;;;;4940107;29;20394;-94
2021/09/16 11:29:22;;;;;;;4.95;2.53;;;22.20;42.70;;;;;;4940338;29;20159;-92
2021/09/16 11:31:47;;;;;;;3.03;2.40;;;22.00;42.50;;;;;;4923285;29;20063;-92
2021/09/16 11:34:17;;;;;;;4.03;2.95;;;21.90;42.60;;;;;;4922587;29;20035;-91
2021/09/16 11:37:06;;;;;;;3.83;2.50;;;21.90;42.90;;;;;;4925072;29;20031;-92
2021/09/16 11:39:33;;;;;;;3.58;2.60;;;21.80;43.00;;;;;;4923717;29;20031;-92
2021/09/16 11:42:10;;;;;;;3.25;2.45;;;21.90;43.40;;;;;;4922889;29;20043;-93
2021/09/16 11:44:36;;;;;;;2.92;2.30;;;21.90;43.50;;;;;;4922802;29;20092;-93
2021/09/16 11:47:01;;;;;;;3.88;2.45;;;22.00;43.60;;;;;;4922168;29;20035;-91
2021/09/16 11:49:27;;;;;;;4.07;3.10;;;22.10;43.40;;;;;;4921999;29;20111;-92
2021/09/16 11:51:56;;;;;;;3.80;3.28;;;22.10;42.60;;;;;;4922216;29;20127;-93
2021/09/16 11:54:22;;;;;;;3.28;2.67;;;22.00;42.70;;;;;;4924862;29;20028;-92
2021/09/16 11:56:48;;;;;;;3.55;2.83;;;21.90;42.80;;;;;;4921547;29;20028;-93
2021/09/16 11:59:13;;;;;;;2.67;2.47;;;22.00;42.90;;;;;;4922254;29;20028;-92
2021/09/16 12:01:39;;;;;;;3.22;2.88;;;22.00;43.10;;;;;;4923830;29;20046;-93
2021/09/16 12:04:14;;;;;;;3.38;2.97;;;22.00;43.20;;;;;;4923194;29;20114;-93
2021/09/16 12:06:43;;;;;;;4.72;3.17;;;22.10;43.10;;;;;;4922780;29;20074;-93
2021/09/16 12:09:15;;;;;;;3.70;3.40;;;22.20;43.00;;;;;;4906247;29;20036;-92
2021/09/16 12:11:41;;;;;;;3.95;3.33;;;22.30;43.20;;;;;;4903533;29;20387;-93
2021/09/16 12:14:27;;;;;;;4.20;3.45;;;22.30;42.80;;;;;;4914981;29;20032;-93
2021/09/16 12:20:42;;;;;;;5.13;4.15;;;22.30;42.70;;;;;;4919143;29;20046;-93
2021/09/16 12:23:12;;;;;;;4.68;3.90;;;22.30;42.70;;;;;;4925608;29;20048;-92
2021/09/16 12:26:11;;;;;;;5.30;3.92;;;22.40;42.70;;;;;;4930834;29;20074;-93
2021/09/16 12:29:22;;;;;;;4.20;3.15;;;22.40;42.60;;;;;;4925325;29;20108;-92
2021/09/16 12:32:18;;;;;;;3.95;3.10;;;22.50;42.70;;;;;;4916976;29;20039;-92
2021/09/16 12:34:47;;;;;;;4.68;3.25;;;22.60;42.00;;;;;;4907084;29;20154;-92
2021/09/16 12:37:14;;;;;;;4.57;3.30;;;22.70;42.40;;;;;;4904114;29;20054;-89
2021/09/16 12:39:53;;;;;;;3.90;3.30;;;22.80;42.10;;;;;;4919597;29;20032;-89
2021/09/16 12:42:41;;;;;;;3.30;2.90;;;22.90;41.80;;;;;;4917102;29;20390;-89
2021/09/16 12:45:14;;;;;;;3.35;2.63;;;23.00;42.00;;;;;;4915679;29;20127;-88
2021/09/16 12:47:54;;;;;;;3.60;2.10;;;23.20;41.80;;;;;;4914457;29;20025;-88
2021/09/16 12:50:23;;;;;;;2.35;2.08;;;23.30;41.30;;;;;;4913864;29;20042;-89
2021/09/16 12:52:53;;;;;;;2.20;1.73;;;23.30;41.70;;;;;;4917467;29;20035;-91
2021/09/16 12:55:19;;;;;;;3.22;1.83;;;23.40;41.70;;;;;;4916466;29;20048;-89